sensor_id;sensor_type;location;lat;lon;timestamp;temperature;humidity
69054;DHT22;56125;52.242;4.756;2023-08-24T00:02:46;23.50;61.20
69054;DHT22;56125;52.242;4.756;2023-08-24T00:07:47;23.50;61.50
69054;DHT22;56125;52.242;4.756;2023-08-24T00:12:49;23.50;61.20
69054;DHT22;56125;52.242;4.756;2023-08-24T00:17:50;23.40;61.20
69054;DHT22;56125;52.242;4.756;2023-08-24T00:22:51;23.40;61.20
69054;DHT22;56125;52.242;4.756;2023-08-24T00:27:53;23.30;61.20
69054;DHT22;56125;52.242;4.756;2023-08-24T00:32:54;23.30;61.50
69054;DHT22;56125;52.242;4.756;2023-08-24T00:37:55;23.20;61.60
69054;DHT22;56125;52.242;4.756;2023-08-24T00:42:56;23.20;61.80
69054;DHT22;56125;52.242;4.756;2023-08-24T00:47:57;23.40;62.10
69054;DHT22;56125;52.242;4.756;2023-08-24T00:52:58;23.20;62.10
69054;DHT22;56125;52.242;4.756;2023-08-24T00:57:59;23.20;62.20
69054;DHT22;56125;52.242;4.756;2023-08-24T01:03:01;23.20;62.30
69054;DHT22;56125;52.242;4.756;2023-08-24T01:08:02;23.10;62.20
69054;DHT22;56125;52.242;4.756;2023-08-24T01:13:10;23.10;62.50
69054;DHT22;56125;52.242;4.756;2023-08-24T01:18:16;23.30;62.70
69054;DHT22;56125;52.242;4.756;2023-08-24T01:23:41;23.10;62.60
69054;DHT22;56125;52.242;4.756;2023-08-24T01:28:44;23.10;62.60
69054;DHT22;56125;52.242;4.756;2023-08-24T01:33:46;23.10;62.90
69054;DHT22;56125;52.242;4.756;2023-08-24T01:39:42;23.10;62.90
69054;DHT22;56125;52.242;4.756;2023-08-24T01:44:14;23.00;63.00
69054;DHT22;56125;52.242;4.756;2023-08-24T01:49:19;23.00;63.20
69054;DHT22;56125;52.242;4.756;2023-08-24T01:54:21;23.00;63.00
69054;DHT22;56125;52.242;4.756;2023-08-24T01:59:22;23.00;63.20
69054;DHT22;56125;52.242;4.756;2023-08-24T02:04:23;23.10;63.40
69054;DHT22;56125;52.242;4.756;2023-08-24T02:09:24;23.10;63.50
69054;DHT22;56125;52.242;4.756;2023-08-24T02:14:25;23.00;63.70
69054;DHT22;56125;52.242;4.756;2023-08-24T02:19:26;23.00;63.50
69054;DHT22;56125;52.242;4.756;2023-08-24T02:24:27;23.00;63.50
69054;DHT22;56125;52.242;4.756;2023-08-24T02:29:28;22.80;63.80
69054;DHT22;56125;52.242;4.756;2023-08-24T02:34:30;23.00;63.80
69054;DHT22;56125;52.242;4.756;2023-08-24T02:39:32;23.00;64.40
69054;DHT22;56125;52.242;4.756;2023-08-24T02:44:33;22.90;64.00
69054;DHT22;56125;52.242;4.756;2023-08-24T02:49:34;22.90;64.10
69054;DHT22;56125;52.242;4.756;2023-08-24T02:54:35;22.90;63.90
69054;DHT22;56125;52.242;4.756;2023-08-24T02:59:36;22.80;63.80
69054;DHT22;56125;52.242;4.756;2023-08-24T03:04:37;22.80;63.80
69054;DHT22;56125;52.242;4.756;2023-08-24T03:09:38;22.90;63.90
69054;DHT22;56125;52.242;4.756;2023-08-24T03:14:39;22.90;64.20
69054;DHT22;56125;52.242;4.756;2023-08-24T03:19:40;22.90;64.30
69054;DHT22;56125;52.242;4.756;2023-08-24T03:24:41;22.90;64.10
69054;DHT22;56125;52.242;4.756;2023-08-24T03:29:42;22.90;64.20
69054;DHT22;56125;52.242;4.756;2023-08-24T03:34:44;22.80;64.10
69054;DHT22;56125;52.242;4.756;2023-08-24T03:39:45;22.90;64.10
69054;DHT22;56125;52.242;4.756;2023-08-24T03:44:46;22.80;63.80
69054;DHT22;56125;52.242;4.756;2023-08-24T03:49:47;22.80;63.70
69054;DHT22;56125;52.242;4.756;2023-08-24T03:54:48;22.80;63.80
69054;DHT22;56125;52.242;4.756;2023-08-24T03:59:49;22.80;64.00
69054;DHT22;56125;52.242;4.756;2023-08-24T04:04:50;22.80;63.80
69054;DHT22;56125;52.242;4.756;2023-08-24T04:09:51;22.80;63.80
69054;DHT22;56125;52.242;4.756;2023-08-24T04:14:52;22.80;63.80
69054;DHT22;56125;52.242;4.756;2023-08-24T04:19:53;22.80;63.70
69054;DHT22;56125;52.242;4.756;2023-08-24T04:24:54;22.80;63.70
69054;DHT22;56125;52.242;4.756;2023-08-24T04:29:55;22.80;63.80
69054;DHT22;56125;52.242;4.756;2023-08-24T04:34:56;22.80;63.70
69054;DHT22;56125;52.242;4.756;2023-08-24T04:39:57;22.80;63.70
69054;DHT22;56125;52.242;4.756;2023-08-24T04:44:58;22.80;63.80
69054;DHT22;56125;52.242;4.756;2023-08-24T04:49:59;22.80;63.70
69054;DHT22;56125;52.242;4.756;2023-08-24T04:55:00;22.80;63.60
69054;DHT22;56125;52.242;4.756;2023-08-24T05:00:02;22.80;63.80
69054;DHT22;56125;52.242;4.756;2023-08-24T05:05:06;22.80;63.70
69054;DHT22;56125;52.242;4.756;2023-08-24T05:10:08;22.80;63.70
69054;DHT22;56125;52.242;4.756;2023-08-24T05:15:09;22.80;63.70
69054;DHT22;56125;52.242;4.756;2023-08-24T05:20:10;22.80;63.70
69054;DHT22;56125;52.242;4.756;2023-08-24T05:25:12;22.80;64.10
69054;DHT22;56125;52.242;4.756;2023-08-24T05:30:13;22.80;64.20
69054;DHT22;56125;52.242;4.756;2023-08-24T05:35:14;22.70;64.40
69054;DHT22;56125;52.242;4.756;2023-08-24T05:40:16;22.70;64.40
69054;DHT22;56125;52.242;4.756;2023-08-24T05:45:17;22.60;64.50
69054;DHT22;56125;52.242;4.756;2023-08-24T05:50:18;22.60;64.60
69054;DHT22;56125;52.242;4.756;2023-08-24T05:55:20;22.70;65.10
69054;DHT22;56125;52.242;4.756;2023-08-24T06:00:21;22.60;65.10
69054;DHT22;56125;52.242;4.756;2023-08-24T06:05:23;22.50;65.20
69054;DHT22;56125;52.242;4.756;2023-08-24T06:10:24;22.30;65.70
69054;DHT22;56125;52.242;4.756;2023-08-24T06:15:27;22.60;65.60
69054;DHT22;56125;52.242;4.756;2023-08-24T06:20:28;22.60;65.50
69054;DHT22;56125;52.242;4.756;2023-08-24T06:25:30;22.60;65.70
69054;DHT22;56125;52.242;4.756;2023-08-24T06:30:32;22.60;65.90
69054;DHT22;56125;52.242;4.756;2023-08-24T06:35:37;22.60;66.20
69054;DHT22;56125;52.242;4.756;2023-08-24T06:40:39;21.90;67.90
69054;DHT22;56125;52.242;4.756;2023-08-24T06:45:40;21.80;69.10
69054;DHT22;56125;52.242;4.756;2023-08-24T06:50:41;22.00;68.50
69054;DHT22;56125;52.242;4.756;2023-08-24T06:55:42;22.10;68.20
69054;DHT22;56125;52.242;4.756;2023-08-24T07:00:43;22.00;68.40
69054;DHT22;56125;52.242;4.756;2023-08-24T07:05:45;22.10;68.30
69054;DHT22;56125;52.242;4.756;2023-08-24T07:10:46;21.90;69.00
69054;DHT22;56125;52.242;4.756;2023-08-24T07:15:47;22.00;69.20
69054;DHT22;56125;52.242;4.756;2023-08-24T07:20:49;21.90;70.40
69054;DHT22;56125;52.242;4.756;2023-08-24T07:25:50;21.90;70.90
69054;DHT22;56125;52.242;4.756;2023-08-24T07:30:51;21.90;70.40
69054;DHT22;56125;52.242;4.756;2023-08-24T07:35:56;21.90;70.70
69054;DHT22;56125;52.242;4.756;2023-08-24T07:40:58;21.80;70.90
69054;DHT22;56125;52.242;4.756;2023-08-24T07:45:59;21.90;70.90
69054;DHT22;56125;52.242;4.756;2023-08-24T07:51:00;22.00;70.40
69054;DHT22;56125;52.242;4.756;2023-08-24T07:56:01;22.20;70.00
69054;DHT22;56125;52.242;4.756;2023-08-24T08:01:02;22.30;69.60
69054;DHT22;56125;52.242;4.756;2023-08-24T08:06:03;22.30;68.60
69054;DHT22;56125;52.242;4.756;2023-08-24T08:11:05;22.40;68.80
69054;DHT22;56125;52.242;4.756;2023-08-24T08:16:07;22.50;68.20
69054;DHT22;56125;52.242;4.756;2023-08-24T08:21:14;22.50;68.50
69054;DHT22;56125;52.242;4.756;2023-08-24T08:26:16;22.60;68.30
69054;DHT22;56125;52.242;4.756;2023-08-24T08:31:17;22.70;67.90
69054;DHT22;56125;52.242;4.756;2023-08-24T08:36:18;22.70;67.80
69054;DHT22;56125;52.242;4.756;2023-08-24T08:41:22;22.70;67.60
69054;DHT22;56125;52.242;4.756;2023-08-24T08:46:23;22.70;67.80
69054;DHT22;56125;52.242;4.756;2023-08-24T08:51:25;22.80;67.80
69054;DHT22;56125;52.242;4.756;2023-08-24T08:56:26;22.80;67.60
69054;DHT22;56125;52.242;4.756;2023-08-24T09:01:28;22.80;67.40
69054;DHT22;56125;52.242;4.756;2023-08-24T09:06:29;22.90;67.50
69054;DHT22;56125;52.242;4.756;2023-08-24T09:11:30;22.90;67.60
69054;DHT22;56125;52.242;4.756;2023-08-24T09:16:32;22.90;67.70
69054;DHT22;56125;52.242;4.756;2023-08-24T09:21:37;22.90;67.80
69054;DHT22;56125;52.242;4.756;2023-08-24T09:26:38;22.90;68.00
69054;DHT22;56125;52.242;4.756;2023-08-24T09:31:43;22.90;67.80
69054;DHT22;56125;52.242;4.756;2023-08-24T09:36:44;22.90;68.20
69054;DHT22;56125;52.242;4.756;2023-08-24T09:41:49;22.90;68.30
69054;DHT22;56125;52.242;4.756;2023-08-24T09:46:51;23.00;68.80
69054;DHT22;56125;52.242;4.756;2023-08-24T09:51:56;23.00;68.60
69054;DHT22;56125;52.242;4.756;2023-08-24T09:56:58;22.70;65.50
69054;DHT22;56125;52.242;4.756;2023-08-24T10:02:00;22.20;63.00
69054;DHT22;56125;52.242;4.756;2023-08-24T10:07:06;21.80;62.90
69054;DHT22;56125;52.242;4.756;2023-08-24T10:12:09;21.20;63.40
69054;DHT22;56125;52.242;4.756;2023-08-24T10:17:12;21.40;66.60
69054;DHT22;56125;52.242;4.756;2023-08-24T10:22:14;21.50;66.60
69054;DHT22;56125;52.242;4.756;2023-08-24T10:27:16;21.60;67.90
69054;DHT22;56125;52.242;4.756;2023-08-24T10:32:20;21.60;67.10
69054;DHT22;56125;52.242;4.756;2023-08-24T10:37:26;21.70;67.50
69054;DHT22;56125;52.242;4.756;2023-08-24T10:42:27;21.80;68.40
69054;DHT22;56125;52.242;4.756;2023-08-24T10:47:28;21.80;66.40
69054;DHT22;56125;52.242;4.756;2023-08-24T10:52:34;21.80;66.00
69054;DHT22;56125;52.242;4.756;2023-08-24T10:57:38;21.70;65.90
69054;DHT22;56125;52.242;4.756;2023-08-24T11:08:08;21.60;65.40
69054;DHT22;56125;52.242;4.756;2023-08-24T11:18:18;21.60;65.20
69054;DHT22;56125;52.242;4.756;2023-08-24T11:23:25;21.50;65.20
69054;DHT22;56125;52.242;4.756;2023-08-24T11:28:29;21.50;65.10
69054;DHT22;56125;52.242;4.756;2023-08-24T11:33:32;21.50;65.00
69054;DHT22;56125;52.242;4.756;2023-08-24T11:38:41;21.40;64.90
69054;DHT22;56125;52.242;4.756;2023-08-24T11:43:44;21.50;64.90
69054;DHT22;56125;52.242;4.756;2023-08-24T11:48:45;21.70;69.40
69054;DHT22;56125;52.242;4.756;2023-08-24T11:53:46;22.00;70.70
69054;DHT22;56125;52.242;4.756;2023-08-24T11:58:49;22.20;71.10
69054;DHT22;56125;52.242;4.756;2023-08-24T12:03:51;22.40;73.20
69054;DHT22;56125;52.242;4.756;2023-08-24T12:08:53;22.60;72.60
69054;DHT22;56125;52.242;4.756;2023-08-24T12:13:55;22.80;72.20
69054;DHT22;56125;52.242;4.756;2023-08-24T12:18:57;22.80;72.00
69054;DHT22;56125;52.242;4.756;2023-08-24T12:24:05;22.90;71.90
69054;DHT22;56125;52.242;4.756;2023-08-24T12:29:09;22.90;71.50
69054;DHT22;56125;52.242;4.756;2023-08-24T12:34:10;23.00;71.60
69054;DHT22;56125;52.242;4.756;2023-08-24T12:39:11;23.00;71.70
69054;DHT22;56125;52.242;4.756;2023-08-24T12:44:16;22.70;71.50
69054;DHT22;56125;52.242;4.756;2023-08-24T12:49:17;23.00;71.70
69054;DHT22;56125;52.242;4.756;2023-08-24T12:54:18;23.10;71.60
69054;DHT22;56125;52.242;4.756;2023-08-24T12:59:19;23.10;71.80
69054;DHT22;56125;52.242;4.756;2023-08-24T13:04:20;23.10;71.70
69054;DHT22;56125;52.242;4.756;2023-08-24T13:09:21;23.10;71.70
69054;DHT22;56125;52.242;4.756;2023-08-24T13:14:22;23.10;71.50
69054;DHT22;56125;52.242;4.756;2023-08-24T13:19:23;23.20;71.40
69054;DHT22;56125;52.242;4.756;2023-08-24T13:24:24;23.20;71.30
69054;DHT22;56125;52.242;4.756;2023-08-24T13:29:25;23.20;71.30
69054;DHT22;56125;52.242;4.756;2023-08-24T13:34:26;23.20;71.00
69054;DHT22;56125;52.242;4.756;2023-08-24T13:39:27;23.30;71.00
69054;DHT22;56125;52.242;4.756;2023-08-24T13:44:33;23.30;71.00
69054;DHT22;56125;52.242;4.756;2023-08-24T13:49:34;23.30;70.80
69054;DHT22;56125;52.242;4.756;2023-08-24T13:54:35;23.30;70.70
69054;DHT22;56125;52.242;4.756;2023-08-24T13:59:36;23.40;70.70
69054;DHT22;56125;52.242;4.756;2023-08-24T14:04:37;23.40;70.60
69054;DHT22;56125;52.242;4.756;2023-08-24T14:09:38;23.40;70.70
69054;DHT22;56125;52.242;4.756;2023-08-24T14:14:39;23.40;70.60
69054;DHT22;56125;52.242;4.756;2023-08-24T14:19:40;23.50;70.50
69054;DHT22;56125;52.242;4.756;2023-08-24T14:24:41;23.50;70.60
69054;DHT22;56125;52.242;4.756;2023-08-24T14:29:42;23.50;71.10
69054;DHT22;56125;52.242;4.756;2023-08-24T14:34:43;23.70;71.00
69054;DHT22;56125;52.242;4.756;2023-08-24T14:39:44;23.50;71.20
69054;DHT22;56125;52.242;4.756;2023-08-24T14:44:45;23.50;70.80
69054;DHT22;56125;52.242;4.756;2023-08-24T14:49:46;23.50;70.80
69054;DHT22;56125;52.242;4.756;2023-08-24T14:54:47;23.50;70.70
69054;DHT22;56125;52.242;4.756;2023-08-24T14:59:48;23.50;70.80
69054;DHT22;56125;52.242;4.756;2023-08-24T15:04:50;23.50;70.70
69054;DHT22;56125;52.242;4.756;2023-08-24T15:09:51;23.20;70.80
69054;DHT22;56125;52.242;4.756;2023-08-24T15:15:00;23.50;70.80
69054;DHT22;56125;52.242;4.756;2023-08-24T15:20:02;23.60;71.00
69054;DHT22;56125;52.242;4.756;2023-08-24T15:25:06;23.60;70.90
69054;DHT22;56125;52.242;4.756;2023-08-24T15:30:08;23.60;70.80
69054;DHT22;56125;52.242;4.756;2023-08-24T15:35:09;23.60;72.00
69054;DHT22;56125;52.242;4.756;2023-08-24T15:40:10;23.60;71.10
69054;DHT22;56125;52.242;4.756;2023-08-24T15:45:11;23.60;71.20
69054;DHT22;56125;52.242;4.756;2023-08-24T15:50:12;23.40;71.10
69054;DHT22;56125;52.242;4.756;2023-08-24T15:55:13;23.70;71.40
69054;DHT22;56125;52.242;4.756;2023-08-24T16:00:14;23.70;71.10
69054;DHT22;56125;52.242;4.756;2023-08-24T16:05:16;24.10;71.90
69054;DHT22;56125;52.242;4.756;2023-08-24T16:10:17;23.60;71.70
69054;DHT22;56125;52.242;4.756;2023-08-24T16:15:18;23.70;72.00
69054;DHT22;56125;52.242;4.756;2023-08-24T16:20:19;24.10;72.70
69054;DHT22;56125;52.242;4.756;2023-08-24T16:25:20;23.70;72.40
69054;DHT22;56125;52.242;4.756;2023-08-24T16:30:21;23.70;72.60
69054;DHT22;56125;52.242;4.756;2023-08-24T16:35:22;23.70;72.80
69054;DHT22;56125;52.242;4.756;2023-08-24T16:40:23;23.70;72.20
69054;DHT22;56125;52.242;4.756;2023-08-24T16:45:24;23.70;72.10
69054;DHT22;56125;52.242;4.756;2023-08-24T16:50:25;23.70;71.90
69054;DHT22;56125;52.242;4.756;2023-08-24T16:55:26;23.70;72.00
69054;DHT22;56125;52.242;4.756;2023-08-24T17:00:27;23.70;71.90
69054;DHT22;56125;52.242;4.756;2023-08-24T17:05:28;23.60;71.50
69054;DHT22;56125;52.242;4.756;2023-08-24T17:10:30;23.70;71.40
69054;DHT22;56125;52.242;4.756;2023-08-24T17:15:31;23.70;71.50
69054;DHT22;56125;52.242;4.756;2023-08-24T17:20:36;23.80;71.60
69054;DHT22;56125;52.242;4.756;2023-08-24T17:25:44;23.70;71.40
69054;DHT22;56125;52.242;4.756;2023-08-24T17:30:47;23.70;71.40
69054;DHT22;56125;52.242;4.756;2023-08-24T17:35:48;23.70;71.00
69054;DHT22;56125;52.242;4.756;2023-08-24T17:40:49;23.70;71.00
69054;DHT22;56125;52.242;4.756;2023-08-24T17:45:50;23.70;70.90
69054;DHT22;56125;52.242;4.756;2023-08-24T17:50:55;23.70;70.60
69054;DHT22;56125;52.242;4.756;2023-08-24T17:55:57;23.70;71.10
69054;DHT22;56125;52.242;4.756;2023-08-24T18:00:58;23.70;70.90
69054;DHT22;56125;52.242;4.756;2023-08-24T18:05:59;23.70;70.90
69054;DHT22;56125;52.242;4.756;2023-08-24T18:11:02;23.70;71.00
69054;DHT22;56125;52.242;4.756;2023-08-24T18:16:03;23.70;71.00
69054;DHT22;56125;52.242;4.756;2023-08-24T18:21:05;23.70;70.70
69054;DHT22;56125;52.242;4.756;2023-08-24T18:26:06;23.70;71.30
69054;DHT22;56125;52.242;4.756;2023-08-24T18:31:07;23.70;71.70
69054;DHT22;56125;52.242;4.756;2023-08-24T18:36:08;23.70;71.80
69054;DHT22;56125;52.242;4.756;2023-08-24T18:41:09;23.70;71.60
69054;DHT22;56125;52.242;4.756;2023-08-24T18:46:10;23.70;71.90
69054;DHT22;56125;52.242;4.756;2023-08-24T18:51:11;23.70;71.90
69054;DHT22;56125;52.242;4.756;2023-08-24T18:56:12;23.70;71.90
69054;DHT22;56125;52.242;4.756;2023-08-24T19:01:13;23.70;72.00
69054;DHT22;56125;52.242;4.756;2023-08-24T19:06:15;23.70;72.00
69054;DHT22;56125;52.242;4.756;2023-08-24T19:11:16;23.70;71.80
69054;DHT22;56125;52.242;4.756;2023-08-24T19:16:17;23.70;70.30
69054;DHT22;56125;52.242;4.756;2023-08-24T19:21:18;23.60;70.10
69054;DHT22;56125;52.242;4.756;2023-08-24T19:26:19;23.70;70.20
69054;DHT22;56125;52.242;4.756;2023-08-24T19:31:20;23.60;70.50
69054;DHT22;56125;52.242;4.756;2023-08-24T19:36:21;23.80;70.90
69054;DHT22;56125;52.242;4.756;2023-08-24T19:41:22;23.60;70.90
69054;DHT22;56125;52.242;4.756;2023-08-24T19:46:26;23.60;71.20
69054;DHT22;56125;52.242;4.756;2023-08-24T19:51:29;23.60;71.40
69054;DHT22;56125;52.242;4.756;2023-08-24T19:56:30;23.60;71.70
69054;DHT22;56125;52.242;4.756;2023-08-24T20:01:31;23.60;71.80
69054;DHT22;56125;52.242;4.756;2023-08-24T20:06:32;23.60;71.90
69054;DHT22;56125;52.242;4.756;2023-08-24T20:11:33;23.60;71.80
69054;DHT22;56125;52.242;4.756;2023-08-24T20:16:34;23.60;72.20
69054;DHT22;56125;52.242;4.756;2023-08-24T20:21:35;23.60;72.40
69054;DHT22;56125;52.242;4.756;2023-08-24T20:26:36;23.60;72.70
69054;DHT22;56125;52.242;4.756;2023-08-24T20:31:38;23.50;72.80
69054;DHT22;56125;52.242;4.756;2023-08-24T20:36:39;23.60;72.60
69054;DHT22;56125;52.242;4.756;2023-08-24T20:41:40;23.90;73.00
69054;DHT22;56125;52.242;4.756;2023-08-24T20:46:44;23.60;72.90
69054;DHT22;56125;52.242;4.756;2023-08-24T20:51:45;23.60;72.90
69054;DHT22;56125;52.242;4.756;2023-08-24T20:56:46;23.50;72.90
69054;DHT22;56125;52.242;4.756;2023-08-24T21:01:47;23.50;73.10
69054;DHT22;56125;52.242;4.756;2023-08-24T21:06:48;23.50;73.10
69054;DHT22;56125;52.242;4.756;2023-08-24T21:11:49;23.50;73.20
69054;DHT22;56125;52.242;4.756;2023-08-24T21:16:50;23.50;73.20
69054;DHT22;56125;52.242;4.756;2023-08-24T21:21:51;23.60;73.40
69054;DHT22;56125;52.242;4.756;2023-08-24T21:26:52;23.50;73.40
69054;DHT22;56125;52.242;4.756;2023-08-24T21:31:53;23.50;73.40
69054;DHT22;56125;52.242;4.756;2023-08-24T21:36:54;23.50;73.50
69054;DHT22;56125;52.242;4.756;2023-08-24T21:41:56;23.50;73.60
69054;DHT22;56125;52.242;4.756;2023-08-24T21:46:57;23.50;73.50
69054;DHT22;56125;52.242;4.756;2023-08-24T21:51:58;23.50;73.70
69054;DHT22;56125;52.242;4.756;2023-08-24T21:56:59;23.50;73.70
69054;DHT22;56125;52.242;4.756;2023-08-24T22:02:00;23.50;73.60
69054;DHT22;56125;52.242;4.756;2023-08-24T22:07:01;23.50;73.70
69054;DHT22;56125;52.242;4.756;2023-08-24T22:12:02;23.50;73.70
69054;DHT22;56125;52.242;4.756;2023-08-24T22:17:04;23.50;73.90
69054;DHT22;56125;52.242;4.756;2023-08-24T22:22:05;23.50;73.90
69054;DHT22;56125;52.242;4.756;2023-08-24T22:27:06;23.50;73.90
69054;DHT22;56125;52.242;4.756;2023-08-24T22:32:07;23.50;73.90
69054;DHT22;56125;52.242;4.756;2023-08-24T22:37:10;23.50;73.90
69054;DHT22;56125;52.242;4.756;2023-08-24T22:42:11;23.50;74.00
69054;DHT22;56125;52.242;4.756;2023-08-24T22:47:12;23.50;74.10
69054;DHT22;56125;52.242;4.756;2023-08-24T22:52:13;23.50;74.10
69054;DHT22;56125;52.242;4.756;2023-08-24T22:57:15;23.50;74.30
69054;DHT22;56125;52.242;4.756;2023-08-24T23:02:16;23.50;74.20
69054;DHT22;56125;52.242;4.756;2023-08-24T23:07:18;23.50;74.20
69054;DHT22;56125;52.242;4.756;2023-08-24T23:12:20;23.50;74.20
69054;DHT22;56125;52.242;4.756;2023-08-24T23:17:22;23.50;74.30
69054;DHT22;56125;52.242;4.756;2023-08-24T23:22:26;23.50;75.00
69054;DHT22;56125;52.242;4.756;2023-08-24T23:27:27;23.50;74.30
69054;DHT22;56125;52.242;4.756;2023-08-24T23:32:28;23.50;74.40
69054;DHT22;56125;52.242;4.756;2023-08-24T23:37:29;23.50;74.30
69054;DHT22;56125;52.242;4.756;2023-08-24T23:42:31;23.50;74.40
69054;DHT22;56125;52.242;4.756;2023-08-24T23:47:32;23.50;74.50
69054;DHT22;56125;52.242;4.756;2023-08-24T23:52:33;23.50;74.40
69054;DHT22;56125;52.242;4.756;2023-08-24T23:57:34;23.50;74.40
